createdAt,value
2022-10-31T00:00:25.890Z,15
2022-10-31T00:01:25.838Z,15
2022-10-31T00:02:25.908Z,18
2022-10-31T00:03:25.838Z,16
2022-10-31T00:04:25.830Z,17
2022-10-31T00:05:25.834Z,16
2022-10-31T00:06:25.847Z,16
2022-10-31T00:08:25.831Z,15
2022-10-31T00:09:25.833Z,17
2022-10-31T00:10:25.849Z,16
2022-10-31T00:11:25.847Z,15
2022-10-31T00:13:25.855Z,17
2022-10-31T00:14:25.836Z,17
2022-10-31T00:15:25.844Z,17
2022-10-31T00:16:25.851Z,17
2022-10-31T00:18:25.840Z,16
2022-10-31T00:19:25.830Z,15
2022-10-31T00:21:25.840Z,18
2022-10-31T00:22:25.855Z,16
2022-10-31T00:24:25.834Z,16
2022-10-31T00:26:25.843Z,17
2022-10-31T00:27:25.831Z,13
2022-10-31T00:28:25.852Z,16
2022-10-31T00:29:25.861Z,15
2022-10-31T00:30:25.833Z,14
2022-10-31T00:31:25.839Z,18
2022-10-31T00:32:25.847Z,17
2022-10-31T00:33:25.844Z,18
2022-10-31T00:35:25.855Z,16
2022-10-31T00:36:25.838Z,13
2022-10-31T00:38:25.843Z,15
2022-10-31T00:39:27.375Z,20
2022-10-31T00:40:25.845Z,13
2022-10-31T00:42:25.862Z,17
2022-10-31T00:43:25.845Z,18
2022-10-31T00:46:25.846Z,17
2022-10-31T00:47:26.004Z,15
2022-10-31T00:48:25.850Z,17
2022-10-31T00:49:25.843Z,13
2022-10-31T00:50:25.877Z,15
2022-10-31T00:51:25.853Z,16
2022-10-31T00:52:25.851Z,14
2022-10-31T00:53:25.848Z,16
2022-10-31T00:54:25.850Z,16
2022-10-31T00:55:25.843Z,16
2022-10-31T00:56:25.846Z,15
2022-10-31T00:57:25.842Z,16
2022-10-31T00:59:25.841Z,18
2022-10-31T01:00:25.875Z,13
2022-10-31T01:01:25.955Z,14
2022-10-31T01:02:25.997Z,16
2022-10-31T01:03:25.861Z,15
2022-10-31T01:04:25.842Z,13
2022-10-31T01:05:25.849Z,14
2022-10-31T01:07:25.849Z,15
2022-10-31T01:08:25.854Z,17
2022-10-31T01:09:25.850Z,16
2022-10-31T01:10:25.847Z,15
2022-10-31T01:11:25.866Z,14
2022-10-31T01:12:25.849Z,15
2022-10-31T01:13:25.847Z,15
2022-10-31T01:14:25.845Z,14
2022-10-31T01:16:25.859Z,15
2022-10-31T01:17:25.851Z,15
2022-10-31T01:18:25.848Z,14
2022-10-31T01:19:25.852Z,13
2022-10-31T01:20:25.853Z,13
2022-10-31T01:21:25.855Z,16
2022-10-31T01:22:25.857Z,13
2022-10-31T01:24:25.851Z,16
2022-10-31T01:26:25.858Z,13
2022-10-31T01:27:25.863Z,14
2022-10-31T01:29:25.855Z,16
2022-10-31T01:30:25.879Z,15
2022-10-31T01:32:25.880Z,17
2022-10-31T01:33:25.859Z,11
2022-10-31T01:34:25.859Z,14
2022-10-31T01:35:25.866Z,15
2022-10-31T01:37:25.864Z,12
2022-10-31T01:38:25.861Z,14
2022-10-31T01:39:25.859Z,15
2022-10-31T01:40:25.865Z,15
2022-10-31T01:42:25.860Z,14
2022-10-31T01:43:25.859Z,13
2022-10-31T01:44:25.876Z,14
2022-10-31T01:45:25.856Z,13
2022-10-31T01:46:25.853Z,15
2022-10-31T01:47:25.855Z,12
2022-10-31T01:48:25.854Z,16
2022-10-31T01:51:25.855Z,14
2022-10-31T01:52:25.858Z,16
2022-10-31T01:53:26.998Z,13
2022-10-31T01:54:25.860Z,12
2022-10-31T01:55:27.692Z,12
2022-10-31T01:57:25.857Z,15
2022-10-31T01:59:25.865Z,14
2022-10-31T02:00:25.861Z,15
2022-10-31T02:01:26.015Z,18
2022-10-31T02:02:26.020Z,15
2022-10-31T02:03:25.857Z,14
2022-10-31T02:04:25.877Z,15
2022-10-31T02:05:25.864Z,13
2022-10-31T02:06:25.857Z,13
2022-10-31T02:08:25.874Z,13
2022-10-31T02:09:25.868Z,14
2022-10-31T02:10:25.868Z,13
2022-10-31T02:11:25.871Z,14
2022-10-31T02:14:25.874Z,11
2022-10-31T02:16:25.867Z,14
2022-10-31T02:18:25.862Z,13
2022-10-31T02:19:25.889Z,12
2022-10-31T02:21:25.876Z,13
2022-10-31T02:22:25.866Z,12
2022-10-31T02:23:25.871Z,15
2022-10-31T02:24:25.872Z,12
2022-10-31T02:25:25.866Z,13
2022-10-31T02:26:25.868Z,13
2022-10-31T02:27:25.867Z,13
2022-10-31T02:29:25.879Z,13
2022-10-31T02:30:25.878Z,14
2022-10-31T02:31:25.875Z,15
2022-10-31T02:32:25.868Z,14
2022-10-31T02:33:25.892Z,20
2022-10-31T02:34:25.873Z,12
2022-10-31T02:35:25.874Z,13
2022-10-31T02:37:25.876Z,14
2022-10-31T02:38:25.871Z,14
2022-10-31T02:39:25.874Z,12
2022-10-31T02:40:25.896Z,15
2022-10-31T02:42:25.868Z,13
2022-10-31T02:43:25.867Z,14
2022-10-31T02:44:25.869Z,14
2022-10-31T02:45:25.887Z,14
2022-10-31T02:46:25.877Z,17
2022-10-31T02:47:25.876Z,13
2022-10-31T02:48:25.872Z,17
2022-10-31T02:49:25.877Z,14
2022-10-31T02:50:25.875Z,12
2022-10-31T02:51:25.955Z,17
2022-10-31T02:52:25.878Z,15
2022-10-31T02:54:25.875Z,14
2022-10-31T02:55:25.876Z,11
2022-10-31T02:56:25.887Z,15
2022-10-31T02:57:25.876Z,17
2022-10-31T02:58:25.887Z,14
2022-10-31T02:59:25.870Z,18
2022-10-31T03:00:25.887Z,13
2022-10-31T03:01:26.015Z,12
2022-10-31T03:02:25.995Z,15
2022-10-31T03:03:25.877Z,16
2022-10-31T03:04:25.911Z,14
2022-10-31T03:05:25.879Z,14
2022-10-31T03:07:25.874Z,13
2022-10-31T03:08:25.886Z,15
2022-10-31T03:09:25.886Z,13
2022-10-31T03:10:25.881Z,18
2022-10-31T03:11:25.893Z,16
2022-10-31T03:12:25.874Z,12
2022-10-31T03:13:25.916Z,13
2022-10-31T03:15:25.885Z,15
2022-10-31T03:16:25.882Z,14
2022-10-31T03:17:25.887Z,17
2022-10-31T03:18:25.886Z,14
2022-10-31T03:20:25.894Z,15
2022-10-31T03:21:25.881Z,14
2022-10-31T03:22:25.885Z,15
2022-10-31T03:23:25.880Z,15
2022-10-31T03:24:25.883Z,15
2022-10-31T03:25:25.882Z,14
2022-10-31T03:26:25.921Z,16
2022-10-31T03:27:25.891Z,16
2022-10-31T03:30:25.891Z,15
2022-10-31T03:31:25.890Z,16
2022-10-31T03:32:25.885Z,15
2022-10-31T03:33:25.885Z,13
2022-10-31T03:34:25.889Z,15
2022-10-31T03:35:25.914Z,13
2022-10-31T03:36:25.887Z,15
2022-10-31T03:37:25.881Z,14
2022-10-31T03:38:25.888Z,14
2022-10-31T03:39:25.884Z,14
2022-10-31T03:40:25.885Z,12
2022-10-31T03:42:25.882Z,15
2022-10-31T03:43:25.915Z,14
2022-10-31T03:44:25.886Z,15
2022-10-31T03:45:25.893Z,12
2022-10-31T03:46:25.898Z,13
2022-10-31T03:47:25.891Z,14
2022-10-31T03:48:25.891Z,13
2022-10-31T03:49:25.920Z,15
2022-10-31T03:51:25.893Z,13
2022-10-31T03:52:25.889Z,15
2022-10-31T03:53:25.886Z,15
2022-10-31T03:54:25.892Z,13
2022-10-31T03:55:25.895Z,13
2022-10-31T03:56:25.898Z,11
2022-10-31T03:57:25.887Z,13
2022-10-31T03:59:25.887Z,14
2022-10-31T04:00:25.884Z,11
2022-10-31T04:01:26.043Z,15
2022-10-31T04:02:26.070Z,14
2022-10-31T04:03:25.898Z,17
2022-10-31T04:04:25.894Z,13
2022-10-31T04:05:25.893Z,12
2022-10-31T04:06:25.918Z,15
2022-10-31T04:07:25.892Z,13
2022-10-31T04:08:25.900Z,16
2022-10-31T04:09:25.891Z,17
2022-10-31T04:10:31.823Z,16
2022-10-31T04:11:25.896Z,13
2022-10-31T04:13:25.890Z,11
2022-10-31T04:14:25.896Z,13
2022-10-31T04:16:25.893Z,12
2022-10-31T04:18:25.906Z,15
2022-10-31T04:19:25.911Z,13
2022-10-31T04:21:25.903Z,14
2022-10-31T04:22:25.900Z,13
2022-10-31T04:24:25.895Z,13
2022-10-31T04:25:25.902Z,14
2022-10-31T04:26:25.906Z,14
2022-10-31T04:27:25.912Z,13
2022-10-31T04:28:25.895Z,16
2022-10-31T04:29:25.900Z,13
2022-10-31T04:30:25.903Z,12
2022-10-31T04:32:25.901Z,15
2022-10-31T04:33:25.894Z,13
2022-10-31T04:34:25.908Z,15
2022-10-31T04:35:25.895Z,15
2022-10-31T04:37:25.927Z,14
2022-10-31T04:38:25.899Z,13
2022-10-31T04:39:26.844Z,12
2022-10-31T04:40:25.908Z,12
2022-10-31T04:41:25.902Z,11
2022-10-31T04:42:25.893Z,11
2022-10-31T04:43:25.906Z,13
2022-10-31T04:45:25.902Z,14
2022-10-31T04:46:25.910Z,13
2022-10-31T04:47:25.903Z,15
2022-10-31T04:50:25.912Z,12
2022-10-31T04:51:25.903Z,13
2022-10-31T04:52:25.903Z,15
2022-10-31T04:54:25.903Z,17
2022-10-31T04:55:25.945Z,10
2022-10-31T04:56:25.904Z,14
2022-10-31T04:57:25.902Z,14
2022-10-31T04:58:25.910Z,13
2022-10-31T04:59:25.907Z,13
2022-10-31T05:00:25.910Z,14
2022-10-31T05:01:26.040Z,14
2022-10-31T05:02:25.944Z,14
2022-10-31T05:03:25.899Z,14
2022-10-31T05:04:25.905Z,12
2022-10-31T05:05:25.902Z,16
2022-10-31T05:06:25.909Z,13
2022-10-31T05:07:25.943Z,15
2022-10-31T05:08:25.958Z,16
2022-10-31T05:09:25.953Z,14
2022-10-31T05:10:25.906Z,13
2022-10-31T05:11:25.912Z,15
2022-10-31T05:12:25.901Z,15
2022-10-31T05:13:25.911Z,14
2022-10-31T05:14:25.922Z,14
2022-10-31T05:15:26.021Z,14
2022-10-31T05:16:25.908Z,12
2022-10-31T05:17:25.910Z,14
2022-10-31T05:19:25.915Z,13
2022-10-31T05:20:25.914Z,13
2022-10-31T05:21:25.924Z,16
2022-10-31T05:22:25.912Z,11
2022-10-31T05:23:25.948Z,13
2022-10-31T05:24:25.903Z,11
2022-10-31T05:25:25.906Z,14
2022-10-31T05:27:25.912Z,11
2022-10-31T05:28:25.915Z,13
2022-10-31T05:29:25.910Z,12
2022-10-31T05:30:25.988Z,12
2022-10-31T05:31:25.916Z,12
2022-10-31T05:32:25.917Z,13
2022-10-31T05:33:25.919Z,15
2022-10-31T05:34:25.924Z,14
2022-10-31T05:35:25.912Z,16
2022-10-31T05:37:25.920Z,16
2022-10-31T05:38:25.921Z,14
2022-10-31T05:40:25.984Z,15
2022-10-31T05:41:25.918Z,18
2022-10-31T05:42:25.920Z,16
2022-10-31T05:43:25.922Z,16
2022-10-31T05:45:25.911Z,13
2022-10-31T05:46:25.964Z,13
2022-10-31T05:47:25.999Z,15
2022-10-31T05:48:25.915Z,13
2022-10-31T05:49:25.921Z,15
2022-10-31T05:50:25.920Z,16
2022-10-31T05:52:25.914Z,15
2022-10-31T05:53:25.917Z,19
2022-10-31T05:54:25.916Z,17
2022-10-31T05:55:25.910Z,15
2022-10-31T05:57:25.912Z,16
2022-10-31T05:58:25.914Z,18
2022-10-31T05:59:25.921Z,15
2022-10-31T06:01:25.997Z,15
2022-10-31T06:02:25.919Z,12
2022-10-31T06:03:25.919Z,18
2022-10-31T06:05:25.911Z,16
2022-10-31T06:06:25.914Z,13
2022-10-31T06:07:25.918Z,13
2022-10-31T06:08:25.924Z,17
2022-10-31T06:10:25.939Z,15
2022-10-31T06:11:25.914Z,22
2022-10-31T06:12:25.937Z,15
2022-10-31T06:13:25.928Z,15
2022-10-31T06:14:25.935Z,19
2022-10-31T06:15:25.928Z,14
2022-10-31T06:16:25.916Z,13
2022-10-31T06:17:25.922Z,16
2022-10-31T06:18:25.925Z,15
2022-10-31T06:20:25.917Z,16
2022-10-31T06:21:25.916Z,15
2022-10-31T06:22:25.936Z,15
2022-10-31T06:23:25.919Z,16
2022-10-31T06:24:25.928Z,16
2022-10-31T06:26:25.924Z,17
2022-10-31T06:27:25.927Z,15
2022-10-31T06:28:25.928Z,18
2022-10-31T06:29:25.936Z,14
2022-10-31T06:30:25.926Z,12
2022-10-31T06:33:25.923Z,17
2022-10-31T06:34:25.927Z,16
2022-10-31T06:35:25.919Z,16
2022-10-31T06:37:25.927Z,16
2022-10-31T06:38:25.928Z,16
2022-10-31T06:39:25.931Z,22
2022-10-31T06:41:25.945Z,15
2022-10-31T06:42:25.924Z,17
2022-10-31T06:43:25.928Z,17
2022-10-31T06:46:25.929Z,19
2022-10-31T06:47:25.932Z,18
2022-10-31T06:49:25.930Z,16
2022-10-31T06:50:26.033Z,17
2022-10-31T06:51:25.931Z,17
2022-10-31T06:53:25.926Z,18
2022-10-31T06:54:25.936Z,19
2022-10-31T06:55:25.929Z,14
2022-10-31T06:56:25.929Z,18
2022-10-31T06:57:25.927Z,20
2022-10-31T06:58:25.925Z,17
2022-10-31T06:59:25.950Z,17
2022-10-31T07:00:25.931Z,19
2022-10-31T07:01:26.253Z,19
2022-10-31T07:02:26.011Z,15
2022-10-31T07:03:25.936Z,21
2022-10-31T07:04:25.922Z,20
2022-10-31T07:06:25.931Z,24
2022-10-31T07:07:25.940Z,17
2022-10-31T07:08:25.926Z,19
2022-10-31T07:10:25.937Z,20
2022-10-31T07:11:25.929Z,18
2022-10-31T07:12:25.962Z,22
2022-10-31T07:13:25.936Z,21
2022-10-31T07:14:25.941Z,21
2022-10-31T07:15:25.958Z,18
2022-10-31T07:18:25.934Z,20
2022-10-31T07:19:25.992Z,18
2022-10-31T07:21:25.935Z,22
2022-10-31T07:23:25.928Z,18
2022-10-31T07:24:25.939Z,18
2022-10-31T07:26:25.928Z,20
2022-10-31T07:27:25.950Z,20
2022-10-31T07:28:25.937Z,18
2022-10-31T07:29:25.937Z,19
2022-10-31T07:31:25.937Z,20
2022-10-31T07:32:25.936Z,16
2022-10-31T07:33:25.944Z,16
2022-10-31T07:34:26.021Z,20
2022-10-31T07:36:25.940Z,18
2022-10-31T07:37:25.933Z,16
2022-10-31T07:38:25.943Z,20
2022-10-31T07:40:26.057Z,18
2022-10-31T07:42:25.936Z,17
2022-10-31T07:44:25.939Z,19
2022-10-31T07:45:25.933Z,18
2022-10-31T07:46:25.943Z,18
2022-10-31T07:47:25.939Z,14
2022-10-31T07:48:25.945Z,20
2022-10-31T07:49:26.006Z,19
2022-10-31T07:50:25.982Z,22
2022-10-31T07:51:25.943Z,24
2022-10-31T07:52:25.937Z,27
2022-10-31T07:53:25.949Z,22
2022-10-31T07:54:25.934Z,21
2022-10-31T07:57:28.440Z,18
2022-10-31T07:58:25.938Z,20
2022-10-31T07:59:25.942Z,17
2022-10-31T08:02:25.939Z,20
2022-10-31T08:03:25.945Z,17
2022-10-31T08:04:25.950Z,23
2022-10-31T08:05:25.944Z,20
2022-10-31T08:06:25.946Z,15
2022-10-31T08:07:26.027Z,20
2022-10-31T08:09:25.952Z,19
2022-10-31T08:10:25.946Z,19
2022-10-31T08:11:25.948Z,20
2022-10-31T08:13:25.951Z,19
2022-10-31T08:14:25.974Z,19
2022-10-31T08:15:25.948Z,21
2022-10-31T08:16:25.954Z,21
2022-10-31T08:18:25.951Z,18
2022-10-31T08:19:25.945Z,21
2022-10-31T08:20:25.946Z,21
2022-10-31T08:22:25.951Z,21
2022-10-31T08:23:25.948Z,18
2022-10-31T08:24:26.021Z,19
2022-10-31T08:26:25.953Z,19
2022-10-31T08:27:25.959Z,19
2022-10-31T08:28:25.951Z,22
2022-10-31T08:29:25.951Z,21
2022-10-31T08:31:30.554Z,23
2022-10-31T08:32:25.958Z,22
2022-10-31T08:33:25.947Z,24
2022-10-31T08:34:25.957Z,19
2022-10-31T08:35:25.947Z,20
2022-10-31T08:36:25.951Z,20
2022-10-31T08:38:25.968Z,18
2022-10-31T08:39:25.957Z,21
2022-10-31T08:40:25.967Z,24
2022-10-31T08:41:25.953Z,20
2022-10-31T08:42:25.960Z,19
2022-10-31T08:43:25.951Z,22
2022-10-31T08:44:25.952Z,20
2022-10-31T08:45:25.973Z,22
2022-10-31T08:47:25.959Z,22
2022-10-31T08:48:25.953Z,23
2022-10-31T08:49:25.964Z,25
2022-10-31T08:50:25.951Z,22
2022-10-31T08:52:44.226Z,20
2022-10-31T08:53:25.961Z,23
2022-10-31T08:54:25.960Z,25
2022-10-31T08:56:25.960Z,24
2022-10-31T08:57:25.963Z,23
2022-10-31T08:58:25.972Z,23
2022-10-31T09:01:26.090Z,23
2022-10-31T09:02:26.062Z,27
2022-10-31T09:03:25.960Z,23
2022-10-31T09:04:25.956Z,28
2022-10-31T09:05:25.954Z,23
2022-10-31T09:06:26.071Z,21
2022-10-31T09:07:25.993Z,25
2022-10-31T09:09:25.956Z,21
2022-10-31T09:10:25.958Z,23
2022-10-31T09:11:25.961Z,28
2022-10-31T09:12:26.111Z,27
2022-10-31T09:14:26.084Z,34
2022-10-31T09:16:25.998Z,29
2022-10-31T09:18:25.968Z,35
2022-10-31T09:19:25.961Z,30
2022-10-31T09:20:25.956Z,31
2022-10-31T09:21:25.961Z,40
2022-10-31T09:22:25.954Z,41
2022-10-31T09:23:25.961Z,29
2022-10-31T09:24:25.986Z,25
2022-10-31T09:25:25.963Z,28
2022-10-31T09:27:25.964Z,25
2022-10-31T09:28:25.966Z,25
2022-10-31T09:29:25.965Z,29
2022-10-31T09:31:25.981Z,26
2022-10-31T09:32:25.971Z,29
2022-10-31T09:33:25.971Z,28
2022-10-31T09:34:25.972Z,23
2022-10-31T09:36:25.971Z,23
2022-10-31T09:37:25.966Z,23
2022-10-31T09:38:25.978Z,30
2022-10-31T09:39:25.970Z,29
2022-10-31T09:40:25.966Z,27
2022-10-31T09:41:25.978Z,23
2022-10-31T09:42:25.967Z,23
2022-10-31T09:44:25.969Z,23
2022-10-31T09:45:25.973Z,25
2022-10-31T09:46:25.977Z,21
2022-10-31T09:47:25.994Z,30
2022-10-31T09:49:26.097Z,27
2022-10-31T09:51:26.964Z,27
2022-10-31T09:52:26.963Z,26
2022-10-31T09:53:26.964Z,27
2022-10-31T09:54:26.965Z,29
2022-10-31T09:55:26.966Z,25
2022-10-31T09:57:26.978Z,27
2022-10-31T09:58:26.962Z,27
2022-10-31T10:00:27.109Z,25
2022-10-31T10:02:26.997Z,26
2022-10-31T10:03:26.963Z,27
2022-10-31T10:04:26.980Z,31
2022-10-31T10:06:26.972Z,28
2022-10-31T10:07:27.000Z,26
2022-10-31T10:08:26.972Z,23
2022-10-31T10:11:26.969Z,27
2022-10-31T10:12:26.983Z,27
2022-10-31T10:14:26.966Z,29
2022-10-31T10:15:26.974Z,26
2022-10-31T10:16:26.969Z,27
2022-10-31T10:19:26.976Z,26
2022-10-31T10:20:26.977Z,28
2022-10-31T10:21:27.583Z,29
2022-10-31T10:24:26.991Z,27
2022-10-31T10:25:26.971Z,28
2022-10-31T10:26:27.027Z,28
2022-10-31T10:28:26.974Z,29
2022-10-31T10:29:26.988Z,26
2022-10-31T10:33:26.976Z,27
2022-10-31T10:34:26.977Z,25
2022-10-31T10:36:26.978Z,27
2022-10-31T10:37:26.977Z,28
2022-10-31T10:38:26.983Z,27
2022-10-31T10:39:26.975Z,27
2022-10-31T10:40:26.978Z,31
2022-10-31T10:41:31.820Z,29
2022-10-31T10:42:26.978Z,24
2022-10-31T10:44:26.978Z,22
2022-10-31T10:45:27.000Z,26
2022-10-31T10:46:26.988Z,24
2022-10-31T10:48:26.980Z,29
2022-10-31T10:49:27.008Z,29
2022-10-31T10:50:26.977Z,25
2022-10-31T10:51:39.102Z,27
2022-10-31T10:52:40.928Z,26
2022-10-31T10:53:26.977Z,25
2022-10-31T10:55:26.978Z,23
2022-10-31T10:57:26.981Z,26
2022-10-31T10:58:26.990Z,28
2022-10-31T11:01:26.999Z,27
2022-10-31T11:03:26.984Z,25
2022-10-31T11:04:26.978Z,25
2022-10-31T11:05:27.006Z,26
2022-10-31T11:06:26.996Z,28
2022-10-31T11:07:26.987Z,24
2022-10-31T11:09:26.991Z,28
2022-10-31T11:10:26.988Z,30
2022-10-31T11:11:26.992Z,24
2022-10-31T11:13:26.982Z,29
2022-10-31T11:14:26.990Z,23
2022-10-31T11:15:26.995Z,36
2022-10-31T11:16:26.991Z,27
2022-10-31T11:17:26.991Z,21
2022-10-31T11:18:27.048Z,26
2022-10-31T11:21:26.985Z,26
2022-10-31T11:22:26.991Z,26
2022-10-31T11:23:26.995Z,26
2022-10-31T11:25:26.990Z,28
2022-10-31T11:26:27.012Z,27
2022-10-31T11:28:26.990Z,22
2022-10-31T11:29:27.001Z,25
2022-10-31T11:30:26.994Z,26
2022-10-31T11:31:26.996Z,23
2022-10-31T11:34:27.010Z,26
2022-10-31T11:36:27.025Z,24
2022-10-31T11:37:26.992Z,25
2022-10-31T11:38:26.998Z,26
2022-10-31T11:39:27.011Z,25
2022-10-31T11:41:26.992Z,21
2022-10-31T11:42:27.004Z,24
2022-10-31T11:43:27.013Z,21
2022-10-31T11:44:27.006Z,25
2022-10-31T11:45:26.990Z,25
2022-10-31T11:46:27.013Z,23
2022-10-31T11:47:26.997Z,25
2022-10-31T11:48:26.994Z,20
2022-10-31T11:51:27.040Z,24
2022-10-31T11:52:27.000Z,24
2022-10-31T11:54:27.002Z,28
2022-10-31T11:56:27.006Z,24
2022-10-31T11:57:27.000Z,20
2022-10-31T11:59:26.994Z,23
2022-10-31T12:01:27.039Z,31
2022-10-31T12:02:27.068Z,28
2022-10-31T12:03:27.011Z,24
2022-10-31T12:04:27.000Z,23
2022-10-31T12:05:27.008Z,22
2022-10-31T12:07:27.017Z,21
2022-10-31T12:08:27.003Z,25
2022-10-31T12:09:27.005Z,22
2022-10-31T12:10:26.997Z,24
2022-10-31T12:12:27.009Z,23
2022-10-31T12:13:27.013Z,30
2022-10-31T12:14:27.004Z,20
2022-10-31T12:15:27.006Z,23
2022-10-31T12:17:27.005Z,22
2022-10-31T12:18:27.006Z,22
2022-10-31T12:20:27.000Z,23
2022-10-31T12:21:27.007Z,21
2022-10-31T12:22:27.060Z,25
2022-10-31T12:24:27.011Z,22
2022-10-31T12:25:27.014Z,27
2022-10-31T12:27:27.006Z,23
2022-10-31T12:28:27.006Z,25
2022-10-31T12:29:27.006Z,23
2022-10-31T12:30:27.012Z,22
2022-10-31T12:33:27.011Z,20
2022-10-31T12:34:27.013Z,24
2022-10-31T12:35:27.069Z,26
2022-10-31T12:36:27.012Z,22
2022-10-31T12:38:27.012Z,19
2022-10-31T12:39:27.010Z,20
2022-10-31T12:40:27.020Z,24
2022-10-31T12:42:27.028Z,22
2022-10-31T12:43:27.006Z,24
2022-10-31T12:44:27.012Z,25
2022-10-31T12:45:27.008Z,20
2022-10-31T12:47:27.010Z,21
2022-10-31T12:48:27.022Z,20
2022-10-31T12:49:27.016Z,22
2022-10-31T12:50:27.013Z,23
2022-10-31T12:51:27.016Z,20
2022-10-31T12:52:27.015Z,20
2022-10-31T12:54:27.014Z,17
2022-10-31T12:55:27.020Z,19
2022-10-31T12:56:27.015Z,21
2022-10-31T12:57:27.016Z,20
2022-10-31T13:00:30.358Z,22
2022-10-31T13:01:27.137Z,20
2022-10-31T13:02:27.095Z,20
2022-10-31T13:03:27.017Z,21
2022-10-31T13:04:27.014Z,20
2022-10-31T13:05:27.019Z,19
2022-10-31T13:06:27.015Z,24
2022-10-31T13:07:27.020Z,23
2022-10-31T13:09:27.027Z,28
2022-10-31T13:10:27.032Z,21
2022-10-31T13:11:27.014Z,23
2022-10-31T13:12:27.013Z,24
2022-10-31T13:13:27.028Z,21
2022-10-31T13:15:27.027Z,19
2022-10-31T13:16:27.050Z,17
2022-10-31T13:17:27.024Z,19
2022-10-31T13:18:27.043Z,20
2022-10-31T13:20:27.030Z,19
2022-10-31T13:22:27.018Z,22
2022-10-31T13:23:49.853Z,18
2022-10-31T13:26:27.022Z,15
2022-10-31T13:27:27.024Z,25
2022-10-31T13:28:27.409Z,16
2022-10-31T13:29:29.870Z,22
2022-10-31T13:31:27.025Z,21
2022-10-31T13:32:27.032Z,20
2022-10-31T13:34:27.035Z,20
2022-10-31T13:35:27.035Z,17
2022-10-31T13:36:27.042Z,17
2022-10-31T13:38:27.031Z,15
2022-10-31T13:39:27.029Z,16
2022-10-31T13:40:27.026Z,17
2022-10-31T13:42:27.027Z,20
2022-10-31T13:43:27.037Z,18
2022-10-31T13:45:27.041Z,16
2022-10-31T13:48:27.063Z,19
2022-10-31T13:49:27.068Z,20
2022-10-31T13:50:27.032Z,22
2022-10-31T13:53:27.044Z,23
2022-10-31T13:54:27.032Z,19
2022-10-31T13:55:27.068Z,19
2022-10-31T13:56:27.033Z,18
2022-10-31T13:57:31.676Z,21
2022-10-31T13:58:27.037Z,19
2022-10-31T13:59:27.028Z,17
2022-10-31T14:02:27.157Z,19
2022-10-31T14:03:57.398Z,21
2022-10-31T14:04:27.300Z,17
2022-10-31T14:05:27.038Z,21
2022-10-31T14:07:27.035Z,17
2022-10-31T14:09:27.037Z,20
2022-10-31T14:10:27.128Z,18
2022-10-31T14:11:27.044Z,19
2022-10-31T14:12:27.043Z,16
2022-10-31T14:14:27.053Z,18
2022-10-31T14:15:27.035Z,17
2022-10-31T14:16:27.037Z,19
2022-10-31T14:17:27.062Z,18
2022-10-31T14:18:27.045Z,19
2022-10-31T14:19:27.044Z,17
2022-10-31T14:20:27.046Z,20
2022-10-31T14:22:27.058Z,14
2022-10-31T14:24:27.040Z,19
2022-10-31T14:27:27.048Z,19
2022-10-31T14:28:27.043Z,15
2022-10-31T14:29:27.053Z,17
2022-10-31T14:30:27.046Z,15
2022-10-31T14:31:27.041Z,18
2022-10-31T14:33:27.052Z,15
2022-10-31T14:35:27.049Z,21
2022-10-31T14:36:27.058Z,18
2022-10-31T14:37:27.045Z,21
2022-10-31T14:38:27.047Z,20
2022-10-31T14:39:27.051Z,16
2022-10-31T14:40:27.047Z,16
2022-10-31T14:41:29.365Z,22
2022-10-31T14:44:27.050Z,17
2022-10-31T14:45:27.047Z,18
2022-10-31T14:46:27.054Z,19
2022-10-31T14:49:27.056Z,15
2022-10-31T14:50:27.061Z,18
2022-10-31T14:51:27.048Z,17
2022-10-31T14:52:27.053Z,20
2022-10-31T14:54:27.058Z,18
2022-10-31T14:56:27.064Z,19
2022-10-31T14:57:27.083Z,20
2022-10-31T14:59:27.059Z,17
2022-10-31T15:00:27.063Z,21
2022-10-31T15:01:27.290Z,19
2022-10-31T15:02:27.287Z,17
2022-10-31T15:04:27.073Z,16
2022-10-31T15:05:27.056Z,16
2022-10-31T15:06:27.050Z,15
2022-10-31T15:08:27.075Z,16
2022-10-31T15:09:27.057Z,18
2022-10-31T15:11:27.059Z,16
2022-10-31T15:14:27.057Z,17
2022-10-31T15:15:27.058Z,22
2022-10-31T15:17:27.065Z,16
2022-10-31T15:19:27.063Z,18
2022-10-31T15:21:27.058Z,15
2022-10-31T15:22:27.067Z,17
2022-10-31T15:23:27.064Z,14
2022-10-31T15:24:27.068Z,14
2022-10-31T15:26:27.062Z,17
2022-10-31T15:27:27.062Z,17
2022-10-31T15:28:27.091Z,15
2022-10-31T15:29:27.063Z,17
2022-10-31T15:30:27.095Z,22
2022-10-31T15:31:27.072Z,17
2022-10-31T15:32:27.065Z,16
2022-10-31T15:33:27.065Z,17
2022-10-31T15:35:27.128Z,15
2022-10-31T15:36:29.184Z,19
2022-10-31T15:38:27.063Z,17
2022-10-31T15:40:27.087Z,17
2022-10-31T15:41:27.093Z,17
2022-10-31T15:43:27.071Z,21
2022-10-31T15:44:27.070Z,17
2022-10-31T15:46:27.073Z,17
2022-10-31T15:49:27.074Z,16
2022-10-31T15:52:27.121Z,15
2022-10-31T15:55:27.071Z,17
2022-10-31T15:56:27.084Z,24
2022-10-31T15:57:27.080Z,20
2022-10-31T15:59:27.101Z,15
2022-10-31T16:00:27.081Z,17
2022-10-31T16:01:27.235Z,18
2022-10-31T16:02:27.242Z,13
2022-10-31T16:03:27.078Z,22
2022-10-31T16:04:27.085Z,17
2022-10-31T16:05:27.456Z,16
2022-10-31T16:07:27.081Z,17
2022-10-31T16:08:27.086Z,16
2022-10-31T16:09:27.075Z,14
2022-10-31T16:10:27.107Z,14
2022-10-31T16:13:27.077Z,18
2022-10-31T16:15:27.084Z,16
2022-10-31T16:16:35.108Z,15
2022-10-31T16:17:27.075Z,15
2022-10-31T16:18:27.089Z,16
2022-10-31T16:19:27.145Z,16
2022-10-31T16:20:27.098Z,23
2022-10-31T16:21:27.107Z,17
2022-10-31T16:22:27.096Z,16
2022-10-31T16:24:27.100Z,15
2022-10-31T16:25:27.078Z,22
2022-10-31T16:26:27.080Z,18
2022-10-31T16:27:27.127Z,16
2022-10-31T16:28:30.921Z,17
2022-10-31T16:29:27.082Z,15
2022-10-31T16:30:27.111Z,18
2022-10-31T16:31:27.103Z,19
2022-10-31T16:33:27.088Z,16
2022-10-31T16:34:27.371Z,21
2022-10-31T16:35:27.089Z,18
2022-10-31T16:38:27.093Z,17
2022-10-31T16:41:27.093Z,16
2022-10-31T16:42:27.172Z,18
2022-10-31T16:43:27.088Z,20
2022-10-31T16:45:27.087Z,19
2022-10-31T16:46:27.113Z,17
2022-10-31T16:47:28.589Z,17
2022-10-31T16:49:27.101Z,21
2022-10-31T16:50:27.094Z,21
2022-10-31T16:51:30.611Z,21
2022-10-31T16:52:27.086Z,22
2022-10-31T16:53:27.090Z,22
2022-10-31T16:55:27.099Z,19
2022-10-31T16:56:27.092Z,16
2022-10-31T16:58:27.139Z,18
2022-10-31T17:00:27.097Z,19
2022-10-31T17:01:27.282Z,21
2022-10-31T17:02:27.131Z,17
2022-10-31T17:03:27.119Z,15
2022-10-31T17:04:27.140Z,19
2022-10-31T17:05:27.095Z,19
2022-10-31T17:06:27.090Z,19
2022-10-31T17:07:27.101Z,18
2022-10-31T17:10:27.112Z,19
2022-10-31T17:11:27.108Z,21
2022-10-31T17:12:27.178Z,19
2022-10-31T17:14:27.101Z,21
2022-10-31T17:15:27.099Z,17
2022-10-31T17:16:27.107Z,16
2022-10-31T17:18:27.975Z,18
2022-10-31T17:19:27.095Z,22
2022-10-31T17:20:27.109Z,19
2022-10-31T17:21:27.105Z,22
2022-10-31T17:24:27.119Z,20
2022-10-31T17:25:27.101Z,20
2022-10-31T17:26:27.111Z,18
2022-10-31T17:28:27.104Z,20
2022-10-31T17:29:27.102Z,22
2022-10-31T17:31:27.107Z,22
2022-10-31T17:33:27.127Z,27
2022-10-31T17:34:27.112Z,21
2022-10-31T17:39:27.113Z,24
2022-10-31T17:40:27.130Z,21
2022-10-31T17:42:27.133Z,24
2022-10-31T17:44:27.100Z,21
2022-10-31T17:45:27.112Z,23
2022-10-31T17:49:27.106Z,21
2022-10-31T17:50:27.111Z,18
2022-10-31T17:52:27.152Z,21
2022-10-31T17:54:27.112Z,21
2022-10-31T17:55:27.111Z,21
2022-10-31T17:59:27.116Z,18
2022-10-31T18:02:27.283Z,22
2022-10-31T18:03:27.115Z,23
2022-10-31T18:04:27.114Z,25
2022-10-31T18:05:27.108Z,18
2022-10-31T18:06:27.118Z,18
2022-10-31T18:07:27.106Z,20
2022-10-31T18:09:27.119Z,22
2022-10-31T18:10:27.117Z,19
2022-10-31T18:11:27.112Z,21
2022-10-31T18:13:27.115Z,19
2022-10-31T18:14:27.118Z,18
2022-10-31T18:15:27.149Z,25
2022-10-31T18:18:27.114Z,16
2022-10-31T18:19:27.141Z,19
2022-10-31T18:20:27.116Z,18
2022-10-31T18:21:27.143Z,20
2022-10-31T18:22:27.120Z,17
2022-10-31T18:24:27.113Z,19
2022-10-31T18:25:27.120Z,22
2022-10-31T18:26:27.114Z,18
2022-10-31T18:27:27.119Z,15
2022-10-31T18:28:27.121Z,22
2022-10-31T18:29:27.118Z,17
2022-10-31T18:30:27.130Z,18
2022-10-31T18:31:27.118Z,17
2022-10-31T18:32:27.201Z,16
2022-10-31T18:34:27.132Z,17
2022-10-31T18:35:27.154Z,16
2022-10-31T18:36:27.124Z,17
2022-10-31T18:37:27.116Z,17
2022-10-31T18:39:27.122Z,16
2022-10-31T18:40:27.137Z,17